createdAt,value
2022-11-05T00:02:15.246Z,17.92
2022-11-05T00:05:00.055Z,16.77
2022-11-05T00:07:55.823Z,22.30
2022-11-05T00:10:24.285Z,19.05
2022-11-05T00:13:10.775Z,16.40
2022-11-05T00:15:55.604Z,18.95
2022-11-05T00:18:21.821Z,19.73
2022-11-05T00:20:48.029Z,16.20
2022-11-05T00:23:32.676Z,19.35
2022-11-05T00:26:00.126Z,16.98
2022-11-05T00:28:27.216Z,16.48
2022-11-05T00:30:53.535Z,17.33
2022-11-05T00:33:20.121Z,19.02
2022-11-05T00:35:46.376Z,16.60
2022-11-05T00:38:12.579Z,16.02
2022-11-05T00:40:39.056Z,17.73
2022-11-05T00:43:23.997Z,19.27
2022-11-05T00:45:50.264Z,14.52
2022-11-05T00:48:35.456Z,15.00
2022-11-05T00:51:01.652Z,15.52
2022-11-05T00:53:27.826Z,15.98
2022-11-05T00:55:54.458Z,16.20
2022-11-05T00:58:21.378Z,18.13
2022-11-05T01:00:51.933Z,18.83
2022-11-05T01:03:19.147Z,17.08
2022-11-05T01:05:49.470Z,13.50
2022-11-05T01:08:16.908Z,14.82
2022-11-05T01:10:53.692Z,17.75
2022-11-05T01:13:21.089Z,17.23
2022-11-05T01:15:47.685Z,17.38
2022-11-05T01:18:13.955Z,15.15
2022-11-05T01:20:40.295Z,16.52
2022-11-05T01:23:11.942Z,16.63
2022-11-05T01:25:39.644Z,14.68
2022-11-05T01:28:06.825Z,16.17
2022-11-05T01:30:33.126Z,16.90
2022-11-05T01:32:59.365Z,14.48
2022-11-05T01:35:25.552Z,15.73
2022-11-05T01:37:51.786Z,12.88
2022-11-05T01:40:22.154Z,18.90
2022-11-05T01:42:48.616Z,17.90
2022-11-05T01:45:19.523Z,18.58
2022-11-05T01:47:58.038Z,17.38
2022-11-05T01:50:24.350Z,16.92
2022-11-05T01:52:54.111Z,21.55
2022-11-05T01:55:24.275Z,15.65
2022-11-05T01:57:52.137Z,20.88
2022-11-05T02:00:18.430Z,18.48
2022-11-05T02:02:44.918Z,16.50
2022-11-05T02:05:12.485Z,17.73
2022-11-05T02:07:38.970Z,18.08
2022-11-05T02:10:06.804Z,18.25
2022-11-05T02:12:33.514Z,15.80
2022-11-05T02:14:59.745Z,17.42
2022-11-05T02:17:31.735Z,15.18
2022-11-05T02:20:00.995Z,16.55
2022-11-05T02:22:29.921Z,15.20
2022-11-05T02:25:14.743Z,14.73
2022-11-05T02:27:59.751Z,13.90
2022-11-05T02:30:44.705Z,14.10
2022-11-05T02:33:17.779Z,19.40
2022-11-05T02:36:04.247Z,15.57
2022-11-05T02:38:36.322Z,14.82
2022-11-05T02:41:12.686Z,15.48
2022-11-05T02:43:45.059Z,16.55
2022-11-05T02:46:26.662Z,17.08
2022-11-05T02:51:24.484Z,16.90
2022-11-05T02:53:57.885Z,18.67
2022-11-05T02:56:26.941Z,13.40
2022-11-05T02:58:53.147Z,16.15
2022-11-05T03:01:19.446Z,16.25
2022-11-05T03:03:48.307Z,16.23
2022-11-05T03:06:22.464Z,16.35
2022-11-05T03:08:57.929Z,15.80
2022-11-05T03:11:25.584Z,18.50
2022-11-05T03:14:17.183Z,19.63
2022-11-05T03:16:47.557Z,16.17
2022-11-05T03:19:19.482Z,14.55
2022-11-05T03:21:47.589Z,15.77
2022-11-05T03:24:17.091Z,15.63
2022-11-05T03:26:47.040Z,17.35
2022-11-05T03:29:16.460Z,16.95
2022-11-05T03:31:43.978Z,19.23
2022-11-05T03:34:10.894Z,19.88
2022-11-05T03:36:41.280Z,20.67
2022-11-05T03:39:13.701Z,23.35
2022-11-05T03:41:43.169Z,16.70
2022-11-05T03:44:10.553Z,19.83
2022-11-05T03:46:40.960Z,17.83
2022-11-05T03:49:10.404Z,20.48
2022-11-05T03:51:41.588Z,19.90
2022-11-05T03:54:08.969Z,20.05
2022-11-05T03:56:38.245Z,17.63
2022-11-05T03:59:06.227Z,21.05
2022-11-05T04:01:32.826Z,21.45
2022-11-05T04:03:59.188Z,17.25
2022-11-05T04:06:44.209Z,18.75
2022-11-05T04:09:29.154Z,19.50
2022-11-05T04:12:13.985Z,19.15
2022-11-05T04:14:40.381Z,22.10
2022-11-05T04:17:06.585Z,19.77
2022-11-05T04:20:00.998Z,20.98
2022-11-05T04:22:46.971Z,17.25
2022-11-05T04:25:13.901Z,19.17
2022-11-05T04:27:40.201Z,18.98
2022-11-05T04:30:18.637Z,18.58
2022-11-05T04:32:58.262Z,17.13
2022-11-05T04:35:25.092Z,17.92
2022-11-05T04:37:51.547Z,17.90
2022-11-05T04:40:17.770Z,17.70
2022-11-05T04:42:44.192Z,18.90
2022-11-05T04:45:10.392Z,17.90
2022-11-05T04:47:36.582Z,18.83
2022-11-05T04:50:02.881Z,16.98
2022-11-05T04:52:29.094Z,18.67
2022-11-05T04:54:55.304Z,17.23
2022-11-05T04:57:21.487Z,16.73
2022-11-05T04:59:48.322Z,16.13
2022-11-05T05:02:14.602Z,21.05
2022-11-05T05:04:40.886Z,16.92
2022-11-05T05:07:07.340Z,17.30
2022-11-05T05:09:33.531Z,19.75
2022-11-05T05:11:59.738Z,16.83
2022-11-05T05:14:25.989Z,14.55
2022-11-05T05:16:52.214Z,16.90
2022-11-05T05:19:18.602Z,18.77
2022-11-05T05:21:44.870Z,16.85
2022-11-05T05:24:13.341Z,19.67
2022-11-05T05:26:40.886Z,17.73
2022-11-05T05:29:07.541Z,19.95
2022-11-05T05:31:33.787Z,19.95
2022-11-05T05:34:00.030Z,17.77
2022-11-05T05:36:26.541Z,20.77
2022-11-05T05:38:52.715Z,19.08
2022-11-05T05:41:19.390Z,22.40
2022-11-05T05:43:45.654Z,18.90
2022-11-05T05:46:13.107Z,19.35
2022-11-05T05:48:39.667Z,19.50
2022-11-05T05:51:06.816Z,20.52
2022-11-05T05:53:33.489Z,19.38
2022-11-05T05:55:59.926Z,18.98
2022-11-05T05:58:27.293Z,17.70
2022-11-05T06:00:54.059Z,17.42
2022-11-05T06:03:20.352Z,21.67
2022-11-05T06:05:46.564Z,22.65
2022-11-05T06:08:12.747Z,20.45
2022-11-05T06:10:39.080Z,24.10
2022-11-05T06:13:05.403Z,24.65
2022-11-05T06:15:35.657Z,25.02
2022-11-05T06:18:02.357Z,24.08
2022-11-05T06:20:28.594Z,22.88
2022-11-05T06:22:57.897Z,23.77
2022-11-05T06:25:24.525Z,23.48
2022-11-05T06:27:50.820Z,23.58
2022-11-05T06:30:17.583Z,24.70
2022-11-05T06:32:44.369Z,22.98
2022-11-05T06:35:11.887Z,24.60
2022-11-05T06:37:38.086Z,27.50
2022-11-05T06:40:04.578Z,23.90
2022-11-05T06:42:30.861Z,23.05
2022-11-05T06:44:57.093Z,26.45
2022-11-05T06:47:23.331Z,26.63
2022-11-05T06:49:49.684Z,22.60
2022-11-05T06:52:16.225Z,23.20
2022-11-05T06:54:43.735Z,23.80
2022-11-05T06:57:10.636Z,22.00
2022-11-05T06:59:39.647Z,24.13
2022-11-05T07:02:06.647Z,24.80
2022-11-05T07:04:33.331Z,24.27
2022-11-05T07:07:00.730Z,22.25
2022-11-05T07:09:27.727Z,23.80
2022-11-05T07:11:54.345Z,23.23
2022-11-05T07:14:20.542Z,21.80
2022-11-05T07:16:46.786Z,27.65
2022-11-05T07:19:12.978Z,22.67
2022-11-05T07:21:39.294Z,25.30
2022-11-05T07:24:05.759Z,22.48
2022-11-05T07:26:34.495Z,25.15
2022-11-05T07:29:00.997Z,25.83
2022-11-05T07:31:27.225Z,25.00
2022-11-05T07:33:53.473Z,27.13
2022-11-05T07:36:19.821Z,21.15
2022-11-05T07:38:46.010Z,24.13
2022-11-05T07:41:12.251Z,23.95
2022-11-05T07:43:38.457Z,20.42
2022-11-05T07:46:05.973Z,25.98
2022-11-05T07:48:35.082Z,21.80
2022-11-05T07:51:01.328Z,21.75
2022-11-05T07:53:27.569Z,23.15
2022-11-05T07:55:53.818Z,21.77
2022-11-05T07:58:19.994Z,21.98
2022-11-05T08:00:46.328Z,21.15
2022-11-05T08:03:17.240Z,22.45
2022-11-05T08:05:45.931Z,21.95
2022-11-05T08:08:13.330Z,22.67
2022-11-05T08:10:40.033Z,21.48
2022-11-05T08:13:06.826Z,18.08
2022-11-05T08:15:33.480Z,21.95
2022-11-05T08:18:00.620Z,22.65
2022-11-05T08:20:27.175Z,20.77
2022-11-05T08:22:54.233Z,18.08
2022-11-05T08:25:20.494Z,23.17
2022-11-05T08:27:46.712Z,16.13
2022-11-05T08:30:12.981Z,16.45
2022-11-05T08:32:39.186Z,18.85
2022-11-05T08:35:05.694Z,20.38
2022-11-05T08:37:31.875Z,16.33
2022-11-05T08:39:58.057Z,16.63
2022-11-05T08:42:24.312Z,17.30
2022-11-05T08:44:50.510Z,15.38
2022-11-05T08:47:16.710Z,12.20
2022-11-05T08:49:42.898Z,13.23
2022-11-05T08:52:09.114Z,12.07
2022-11-05T08:54:35.426Z,13.73
2022-11-05T08:57:01.672Z,10.48
2022-11-05T08:59:29.715Z,11.18
2022-11-05T09:01:56.062Z,9.40
2022-11-05T09:04:22.331Z,10.15
2022-11-05T09:06:48.528Z,9.02
2022-11-05T09:09:14.701Z,9.55
2022-11-05T09:12:09.837Z,9.40
2022-11-05T09:14:27.279Z,8.18
2022-11-05T09:16:53.546Z,10.10
2022-11-05T09:19:19.803Z,12.20
2022-11-05T09:21:46.025Z,10.93
2022-11-05T09:24:12.258Z,11.70
2022-11-05T09:26:38.477Z,10.23
2022-11-05T09:29:04.674Z,14.20
2022-11-05T09:31:30.896Z,10.23
2022-11-05T09:33:57.147Z,13.50
2022-11-05T09:36:23.374Z,9.45
2022-11-05T09:38:49.605Z,11.38
2022-11-05T09:41:20.103Z,10.98
2022-11-05T09:43:51.396Z,10.95
2022-11-05T09:46:23.415Z,10.77
2022-11-05T09:48:52.067Z,10.93
2022-11-05T09:51:23.640Z,9.00
2022-11-05T09:53:51.088Z,8.50
2022-11-05T09:56:21.994Z,8.05
2022-11-05T09:58:57.284Z,10.48
2022-11-05T10:01:25.388Z,9.57
2022-11-05T10:03:54.044Z,6.15
2022-11-05T10:06:23.332Z,6.22
2022-11-05T10:08:52.667Z,6.97
2022-11-05T10:11:25.081Z,9.25
2022-11-05T10:13:56.698Z,6.93
2022-11-05T10:16:22.861Z,8.23
2022-11-05T10:18:53.485Z,8.20
2022-11-05T10:21:37.802Z,5.85
2022-11-05T10:24:17.172Z,5.63
2022-11-05T10:26:47.399Z,6.45
2022-11-05T10:29:15.822Z,8.38
2022-11-05T10:31:43.042Z,5.45
2022-11-05T10:34:13.428Z,6.05
2022-11-05T10:36:39.740Z,5.63
2022-11-05T10:39:09.581Z,4.65
2022-11-05T10:41:40.749Z,4.38
2022-11-05T10:44:24.998Z,4.93
2022-11-05T10:46:57.765Z,4.95
2022-11-05T10:49:42.579Z,5.75
2022-11-05T10:52:31.865Z,7.47
2022-11-05T10:55:00.150Z,4.60
2022-11-05T10:57:32.441Z,4.53
2022-11-05T11:00:18.068Z,7.28
2022-11-05T11:02:49.165Z,5.28
2022-11-05T11:05:23.557Z,4.22
2022-11-05T11:07:57.635Z,5.82
2022-11-05T11:10:24.771Z,4.63
2022-11-05T11:12:51.334Z,6.03
2022-11-05T11:15:20.296Z,6.05
2022-11-05T11:17:46.597Z,3.90
2022-11-05T11:20:32.083Z,6.15
2022-11-05T11:22:58.270Z,8.90
2022-11-05T11:25:25.502Z,5.50
2022-11-05T11:27:52.163Z,5.53
2022-11-05T11:30:19.411Z,5.60
2022-11-05T11:32:46.213Z,4.25
2022-11-05T11:35:20.549Z,6.18
2022-11-05T11:37:47.546Z,4.43
2022-11-05T11:40:16.140Z,8.90
2022-11-05T11:42:45.740Z,4.13
2022-11-05T11:45:17.086Z,4.50
2022-11-05T11:47:44.363Z,5.30
2022-11-05T11:50:30.513Z,6.63
2022-11-05T11:53:15.662Z,5.57
2022-11-05T11:55:56.604Z,4.55
2022-11-05T11:58:23.861Z,3.85
2022-11-05T12:00:57.003Z,4.70
2022-11-05T12:03:35.354Z,4.97
2022-11-05T12:06:05.129Z,5.65
2022-11-05T12:08:46.187Z,5.13
2022-11-05T12:11:13.835Z,3.53
2022-11-05T12:13:40.110Z,6.55
2022-11-05T12:16:20.541Z,7.78
2022-11-05T12:18:49.732Z,5.05
2022-11-05T12:21:40.685Z,5.20
2022-11-05T12:24:06.548Z,5.82
2022-11-05T12:26:35.768Z,3.60
2022-11-05T12:29:21.273Z,4.78
2022-11-05T12:31:47.614Z,5.07
2022-11-05T12:34:21.505Z,9.07
2022-11-05T12:37:03.838Z,6.50
2022-11-05T12:39:38.948Z,4.80
2022-11-05T12:42:09.757Z,4.03
2022-11-05T12:44:57.647Z,5.35
2022-11-05T12:47:49.158Z,4.63
2022-11-05T12:50:22.379Z,4.07
2022-11-05T12:53:04.591Z,4.15
2022-11-05T12:55:34.055Z,3.85
2022-11-05T12:58:08.747Z,5.18
2022-11-05T13:00:36.928Z,3.67
2022-11-05T13:03:22.073Z,4.32
2022-11-05T13:05:54.278Z,5.63
2022-11-05T13:08:25.654Z,3.83
2022-11-05T13:11:06.688Z,2.38
2022-11-05T13:13:45.172Z,6.55
2022-11-05T13:16:24.135Z,4.45
2022-11-05T13:18:53.682Z,3.40
2022-11-05T13:21:23.175Z,9.50
2022-11-05T13:24:01.366Z,2.67
2022-11-05T13:26:31.403Z,4.45
2022-11-05T13:29:08.310Z,4.22
2022-11-05T13:31:54.784Z,3.65
2022-11-05T13:34:21.049Z,5.25
2022-11-05T13:37:09.133Z,3.47
2022-11-05T13:39:37.566Z,3.00
2022-11-05T13:42:11.923Z,4.65
2022-11-05T13:44:47.377Z,4.55
2022-11-05T13:47:13.608Z,5.20
2022-11-05T13:49:42.783Z,4.03
2022-11-05T13:52:27.692Z,5.68
2022-11-05T13:55:02.861Z,4.60
2022-11-05T13:57:29.157Z,5.28
2022-11-05T14:00:05.378Z,4.90
2022-11-05T14:02:37.244Z,4.15
2022-11-05T14:05:05.172Z,6.20
2022-11-05T14:07:33.163Z,3.58
2022-11-05T14:10:05.241Z,4.40
2022-11-05T14:12:34.062Z,3.80
2022-11-05T14:15:08.455Z,6.25
2022-11-05T14:17:54.667Z,5.70
2022-11-05T14:20:25.910Z,4.43
2022-11-05T14:22:52.547Z,5.85
2022-11-05T14:25:18.753Z,4.78
2022-11-05T14:27:46.506Z,4.53
2022-11-05T14:30:31.338Z,4.95
2022-11-05T14:33:04.798Z,5.00
2022-11-05T14:35:37.840Z,7.55
2022-11-05T14:38:05.280Z,6.82
2022-11-05T14:40:36.331Z,5.30
2022-11-05T14:43:04.489Z,7.70
2022-11-05T14:45:39.126Z,7.10
2022-11-05T14:48:06.870Z,4.28
2022-11-05T14:50:33.068Z,6.45
2022-11-05T14:53:12.971Z,5.28
2022-11-05T14:55:41.301Z,4.97
2022-11-05T14:58:27.946Z,4.32
2022-11-05T15:00:54.479Z,9.82
2022-11-05T15:03:29.269Z,5.03
2022-11-05T15:06:04.627Z,4.65
2022-11-05T15:08:30.833Z,5.60
2022-11-05T15:11:05.296Z,7.20
2022-11-05T15:13:33.519Z,5.00
2022-11-05T15:15:59.728Z,6.78
2022-11-05T15:18:35.171Z,5.25
2022-11-05T15:21:02.299Z,4.32
2022-11-05T15:23:38.116Z,6.93
2022-11-05T15:26:07.493Z,4.20
2022-11-05T15:28:42.513Z,3.38
2022-11-05T15:31:14.494Z,7.93
2022-11-05T15:33:41.378Z,5.65
2022-11-05T15:36:15.876Z,5.75
2022-11-05T15:38:56.566Z,3.13
2022-11-05T15:41:33.519Z,3.83
2022-11-05T15:44:00.520Z,4.45
2022-11-05T15:46:30.824Z,6.15
2022-11-05T15:48:58.292Z,7.43
2022-11-05T15:51:25.269Z,4.55
2022-11-05T15:54:23.745Z,5.22
2022-11-05T15:56:47.897Z,6.75
2022-11-05T15:59:16.390Z,6.97
2022-11-05T16:01:46.923Z,5.85
2022-11-05T16:04:21.199Z,7.77
2022-11-05T16:06:48.947Z,7.75
2022-11-05T16:09:23.083Z,6.25
2022-11-05T16:11:53.170Z,6.68
2022-11-05T16:14:19.668Z,6.25
2022-11-05T16:16:46.390Z,5.22
2022-11-05T16:19:34.314Z,4.03
2022-11-05T16:22:05.147Z,6.53
2022-11-05T16:24:31.698Z,5.13
2022-11-05T16:27:03.414Z,5.45
2022-11-05T16:29:32.374Z,4.93
2022-11-05T16:31:59.844Z,4.22
2022-11-05T16:34:26.005Z,5.28
2022-11-05T16:36:54.071Z,4.80
2022-11-05T16:39:20.314Z,7.13
2022-11-05T16:41:48.321Z,7.88
2022-11-05T16:44:14.990Z,4.32
2022-11-05T16:46:43.401Z,6.35
2022-11-05T16:49:11.807Z,3.63
2022-11-05T16:51:38.411Z,4.25
2022-11-05T16:54:05.161Z,5.32
2022-11-05T16:56:31.588Z,4.90
2022-11-05T16:58:57.799Z,5.40
2022-11-05T17:01:24.495Z,4.60
2022-11-05T17:03:52.269Z,5.53
2022-11-05T17:06:19.477Z,3.80
2022-11-05T17:08:46.171Z,5.10
2022-11-05T17:11:16.477Z,9.38
2022-11-05T17:13:42.994Z,6.97
2022-11-05T17:16:10.872Z,5.38
2022-11-05T17:18:37.564Z,5.47
2022-11-05T17:21:03.892Z,8.20
2022-11-05T17:23:32.446Z,6.80
2022-11-05T17:26:06.294Z,5.43
2022-11-05T17:28:32.874Z,7.32
2022-11-05T17:31:00.199Z,5.60
2022-11-05T17:33:26.987Z,5.90
2022-11-05T17:35:53.640Z,8.68
2022-11-05T17:38:20.193Z,7.88
2022-11-05T17:40:46.489Z,7.95
2022-11-05T17:43:13.060Z,5.88
2022-11-05T17:46:04.090Z,6.38
2022-11-05T17:48:30.809Z,9.43
2022-11-05T17:50:57.056Z,7.90
2022-11-05T17:53:23.306Z,11.57
2022-11-05T17:55:49.870Z,6.70
2022-11-05T17:58:16.415Z,10.00
2022-11-05T18:00:43.256Z,9.32
2022-11-05T18:03:10.239Z,12.23
2022-11-05T18:05:37.823Z,10.07
2022-11-05T18:08:04.617Z,9.18
2022-11-05T18:10:30.807Z,9.02
2022-11-05T18:12:57.300Z,9.20
2022-11-05T18:15:23.506Z,8.85
2022-11-05T18:17:49.723Z,10.60
2022-11-05T18:20:19.124Z,9.88
2022-11-05T18:22:47.989Z,10.15
2022-11-05T18:25:14.231Z,12.52
2022-11-05T18:27:40.564Z,11.25
2022-11-05T18:30:07.336Z,12.23
2022-11-05T18:32:33.604Z,8.60
2022-11-05T18:34:59.838Z,15.77
2022-11-05T18:37:26.049Z,10.65
2022-11-05T18:39:52.931Z,12.32
2022-11-05T18:42:21.925Z,15.95
2022-11-05T18:44:48.548Z,12.63
2022-11-05T18:47:14.953Z,15.13
2022-11-05T18:49:41.296Z,15.00
2022-11-05T18:52:07.582Z,18.73
2022-11-05T18:54:33.887Z,12.52
2022-11-05T18:57:00.223Z,14.88
2022-11-05T18:59:41.969Z,13.80
2022-11-05T19:02:08.822Z,12.45
2022-11-05T19:04:36.184Z,11.15
2022-11-05T19:07:05.361Z,13.90
2022-11-05T19:09:32.515Z,13.02
2022-11-05T19:11:58.822Z,17.13
2022-11-05T19:14:25.145Z,12.73
2022-11-05T19:16:51.385Z,12.15
2022-11-05T19:19:17.689Z,11.43
2022-11-05T19:21:44.440Z,14.02
2022-11-05T19:24:16.666Z,12.85
2022-11-05T19:26:43.211Z,11.85
2022-11-05T19:29:09.427Z,15.23
2022-11-05T19:31:35.709Z,12.32
2022-11-05T19:34:03.047Z,11.93
2022-11-05T19:36:29.976Z,9.60
2022-11-05T19:38:57.432Z,10.85
2022-11-05T19:41:24.311Z,13.68
2022-11-05T19:43:50.605Z,14.02
2022-11-05T19:46:18.122Z,12.50
2022-11-05T19:48:44.883Z,10.40
2022-11-05T19:51:13.816Z,10.77
2022-11-05T19:53:40.067Z,11.02
2022-11-05T19:56:13.369Z,10.32
2022-11-05T19:58:39.661Z,7.43
2022-11-05T20:01:06.065Z,8.82
2022-11-05T20:03:32.390Z,9.50
2022-11-05T20:06:03.097Z,11.98
2022-11-05T20:08:29.732Z,14.77
2022-11-05T20:10:56.193Z,9.50
2022-11-05T20:13:22.969Z,8.77
2022-11-05T20:15:49.675Z,9.68
2022-11-05T20:18:16.474Z,9.10
2022-11-05T20:20:43.236Z,10.05
2022-11-05T20:23:09.653Z,9.82
2022-11-05T20:25:35.963Z,9.77
2022-11-05T20:28:02.294Z,10.70
2022-11-05T20:30:28.516Z,8.50
2022-11-05T20:32:55.387Z,11.07
2022-11-05T20:35:21.892Z,14.02
2022-11-05T20:37:53.631Z,9.10
2022-11-05T20:40:20.274Z,10.95
2022-11-05T20:42:46.461Z,9.63
2022-11-05T20:45:12.726Z,10.95
2022-11-05T20:47:38.982Z,8.80
2022-11-05T20:50:05.562Z,10.23
2022-11-05T20:52:31.787Z,11.20
2022-11-05T20:54:58.014Z,8.27
2022-11-05T20:57:24.210Z,9.32
2022-11-05T20:59:50.675Z,10.23
2022-11-05T21:02:17.029Z,12.48
2022-11-05T21:04:43.277Z,9.02
2022-11-05T21:07:09.558Z,12.82
2022-11-05T21:09:35.741Z,10.75
2022-11-05T21:12:11.055Z,15.10
2022-11-05T21:14:38.302Z,15.60
2022-11-05T21:17:05.191Z,12.57
2022-11-05T21:19:32.180Z,13.10
2022-11-05T21:21:58.593Z,15.48
2022-11-05T21:24:24.892Z,13.05
2022-11-05T21:26:51.262Z,12.27
2022-11-05T21:29:18.100Z,11.40
2022-11-05T21:31:44.980Z,11.25
2022-11-05T21:34:11.239Z,11.82
2022-11-05T21:36:37.719Z,14.13
2022-11-05T21:39:07.716Z,12.07
2022-11-05T21:41:36.781Z,15.40
2022-11-05T21:44:04.093Z,12.88
2022-11-05T21:46:30.569Z,12.98
2022-11-05T21:48:56.926Z,12.98
2022-11-05T21:51:41.885Z,9.70
2022-11-05T21:54:28.076Z,17.45
2022-11-05T21:57:12.875Z,10.60
2022-11-05T21:59:48.218Z,11.57
2022-11-05T22:02:15.921Z,12.85
2022-11-05T22:04:46.626Z,11.45
2022-11-05T22:07:14.527Z,15.83
2022-11-05T22:09:40.700Z,9.90
2022-11-05T22:12:07.589Z,13.65
2022-11-05T22:14:34.118Z,9.73
2022-11-05T22:17:00.454Z,11.15
2022-11-05T22:19:26.851Z,11.02
2022-11-05T22:21:53.178Z,9.93
2022-11-05T22:24:19.875Z,11.30
2022-11-05T22:26:46.179Z,11.18
2022-11-05T22:29:12.841Z,7.18
2022-11-05T22:31:39.225Z,11.18
2022-11-05T22:34:06.016Z,8.63
2022-11-05T22:36:32.920Z,10.55
2022-11-05T22:38:59.197Z,9.27
2022-11-05T22:41:25.788Z,10.13
2022-11-05T22:43:52.161Z,8.27
2022-11-05T22:46:20.161Z,15.63
2022-11-05T22:48:46.693Z,13.23
2022-11-05T22:51:13.991Z,12.70
2022-11-05T22:53:41.153Z,11.77
2022-11-05T22:56:08.498Z,8.30
2022-11-05T22:58:34.745Z,10.82
2022-11-05T23:01:01.520Z,12.35
2022-11-05T23:03:28.668Z,13.93
2022-11-05T23:05:58.246Z,12.07
2022-11-05T23:08:43.131Z,9.93
2022-11-05T23:11:38.169Z,12.30
2022-11-05T23:14:05.265Z,9.30
2022-11-05T23:16:50.108Z,7.63
2022-11-05T23:19:34.916Z,10.90
2022-11-05T23:22:19.858Z,10.55
2022-11-05T23:24:47.125Z,7.60
2022-11-05T23:27:13.587Z,10.68
2022-11-05T23:29:39.872Z,10.10
2022-11-05T23:32:24.707Z,8.23
2022-11-05T23:34:55.035Z,7.10
2022-11-05T23:37:40.820Z,8.95
2022-11-05T23:40:08.434Z,11.68
2022-11-05T23:42:53.417Z,8.88
2022-11-05T23:45:51.861Z,7.05
2022-11-05T23:48:29.986Z,9.85
2022-11-05T23:50:58.946Z,8.30
2022-11-05T23:53:25.866Z,7.78
2022-11-05T23:55:52.122Z,7.40
2022-11-05T23:58:18.880Z,8.40
